Time,TemperatureF,DewpointF,PressureIn,WindDirection,WindDirectionDegrees,WindSpeedMPH,WindSpeedGustMPH,Humidity,HourlyPrecipIn,Conditions,Clouds,dailyrainin,SoftwareType,DateUTC
2013-01-18 00:03:00,31.0,28.0,30.20,NW,313,0.0,0.0,89,0.01,,,0.11,,2013-01-18 05:03:00,
2013-01-18 00:12:00,31.0,28.0,30.20,NW,313,0.0,0.0,89,0.01,,,0.11,,2013-01-18 05:12:00,
2013-01-18 00:22:00,31.0,28.0,30.20,NW,313,0.0,0.0,89,0.01,,,0.11,,2013-01-18 05:22:00,
2013-01-18 00:33:00,30.0,27.0,30.22,NW,325,0.0,0.0,88,0.00,,,0.10,,2013-01-18 05:33:00,
2013-01-18 00:42:00,30.0,27.0,30.22,NW,325,0.0,0.0,88,0.00,,,0.10,,2013-01-18 05:42:00,
2013-01-18 00:53:00,30.0,27.0,30.23,NNW,337,0.0,0.0,88,0.00,,,0.10,,2013-01-18 05:53:00,
2013-01-18 01:02:00,30.0,27.0,30.23,NNW,337,0.0,0.0,88,0.00,,,0.10,,2013-01-18 06:02:00,
2013-01-18 01:12:00,30.0,27.0,30.23,NNW,337,0.0,0.0,88,0.00,,,0.10,,2013-01-18 06:12:00,
2013-01-18 01:22:00,30.0,27.0,30.26,NW,323,0.0,0.0,87,0.00,,,0.10,,2013-01-18 06:22:00,
2013-01-18 01:33:00,30.0,27.0,30.27,NNE,17,0.0,0.0,87,0.00,,,0.09,,2013-01-18 06:33:00,
2013-01-18 01:43:00,30.0,27.0,30.27,NNE,17,0.0,0.0,87,0.00,,,0.09,,2013-01-18 06:43:00,
2013-01-18 01:53:00,29.0,26.0,30.27,NNW,340,0.0,0.0,87,0.01,,,0.10,,2013-01-18 06:53:00,
2013-01-18 02:02:00,29.0,26.0,30.28,WSW,244,0.0,0.0,87,0.01,,,0.10,,2013-01-18 07:02:00,
2013-01-18 02:12:00,29.0,26.0,30.28,WSW,244,0.0,0.0,87,0.01,,,0.10,,2013-01-18 07:12:00,
2013-01-18 02:22:00,29.0,26.0,30.28,WNW,300,0.0,0.0,87,0.01,,,0.10,,2013-01-18 07:22:00,
2013-01-18 02:32:00,29.0,26.0,30.29,WNW,295,0.0,0.0,87,0.01,,,0.10,,2013-01-18 07:32:00,
2013-01-18 02:42:00,29.0,26.0,30.29,WNW,295,0.0,0.0,87,0.01,,,0.10,,2013-01-18 07:42:00,
2013-01-18 02:52:00,28.0,25.0,30.28,NNW,348,0.0,0.0,87,0.00,,,0.10,,2013-01-18 07:52:00,
2013-01-18 03:02:00,28.0,25.0,30.28,West,279,0.0,0.0,87,0.00,,,0.10,,2013-01-18 08:02:00,
2013-01-18 03:12:00,28.0,25.0,30.28,West,279,0.0,0.0,87,0.00,,,0.10,,2013-01-18 08:12:00,
2013-01-18 03:22:00,28.0,25.0,30.28,West,273,0.0,0.0,87,0.00,,,0.10,,2013-01-18 08:22:00,
2013-01-18 03:32:00,28.0,25.0,30.28,WNW,298,0.0,0.0,87,0.00,,,0.09,,2013-01-18 08:32:00,
2013-01-18 03:42:00,28.0,25.0,30.28,WNW,298,0.0,0.0,87,0.00,,,0.09,,2013-01-18 08:42:00,
2013-01-18 03:53:00,28.0,25.0,30.28,NW,326,0.0,0.0,87,0.00,,,0.09,,2013-01-18 08:53:00,
2013-01-18 04:03:00,28.0,24.0,30.29,West,281,0.0,0.0,86,0.00,,,0.09,,2013-01-18 09:03:00,
2013-01-18 04:12:00,28.0,24.0,30.29,West,281,0.0,0.0,86,0.00,,,0.09,,2013-01-18 09:12:00,
2013-01-18 04:22:00,28.0,25.0,30.28,NW,325,0.0,0.0,87,0.00,,,0.09,,2013-01-18 09:22:00,
2013-01-18 04:33:00,28.0,24.0,30.28,NNW,344,0.0,0.0,86,0.00,,,0.09,,2013-01-18 09:33:00,
2013-01-18 04:42:00,28.0,24.0,30.28,NNW,344,0.0,0.0,86,0.00,,,0.09,,2013-01-18 09:42:00,
2013-01-18 04:53:00,27.0,23.0,30.29,NW,322,0.0,0.0,86,0.00,,,0.09,,2013-01-18 09:53:00,
2013-01-18 05:03:00,27.0,23.0,30.29,WNW,285,0.0,0.0,86,0.00,,,0.09,,2013-01-18 10:03:00,
2013-01-18 05:12:00,27.0,23.0,30.29,WNW,285,0.0,0.0,86,0.00,,,0.09,,2013-01-18 10:12:00,
2013-01-18 05:22:00,27.0,23.0,30.29,West,277,0.0,0.0,86,0.00,,,0.09,,2013-01-18 10:22:00,
2013-01-18 05:32:00,27.0,23.0,30.30,NW,313,0.0,0.0,86,0.00,,,0.08,,2013-01-18 10:32:00,
2013-01-18 05:43:00,27.0,23.0,30.30,NW,313,0.0,0.0,86,0.00,,,0.08,,2013-01-18 10:43:00,
2013-01-18 05:53:00,27.0,23.0,30.30,West,281,0.0,0.0,85,0.00,,,0.08,,2013-01-18 10:53:00,
2013-01-18 06:02:00,27.0,23.0,30.31,NW,324,0.0,0.0,85,0.00,,,0.08,,2013-01-18 11:02:00,
2013-01-18 06:12:00,27.0,23.0,30.31,NW,324,0.0,0.0,85,0.00,,,0.08,,2013-01-18 11:12:00,
2013-01-18 06:23:00,27.0,23.0,30.32,West,281,0.0,0.0,84,0.00,,,0.08,,2013-01-18 11:23:00,
2013-01-18 06:32:00,27.0,23.0,30.32,NW,315,0.0,0.0,85,0.00,,,0.08,,2013-01-18 11:32:00,
2013-01-18 06:42:00,27.0,23.0,30.32,NW,315,0.0,0.0,85,0.00,,,0.08,,2013-01-18 11:42:00,
2013-01-18 06:53:00,27.0,23.0,30.33,West,276,0.0,0.0,85,0.00,,,0.08,,2013-01-18 11:53:00,
2013-01-18 07:03:00,27.0,23.0,30.34,West,276,0.0,0.0,84,0.00,,,0.08,,2013-01-18 12:03:00,
2013-01-18 07:12:00,27.0,23.0,30.34,West,276,0.0,0.0,84,0.00,,,0.08,,2013-01-18 12:12:00,
2013-01-18 07:23:00,26.0,22.0,30.36,WSW,240,0.0,0.0,83,0.00,,,0.08,,2013-01-18 12:23:00,
2013-01-18 07:33:00,26.0,22.0,30.36,West,275,0.0,0.0,83,0.00,,,0.07,,2013-01-18 12:33:00,
2013-01-18 07:43:00,26.0,22.0,30.36,West,275,0.0,0.0,83,0.00,,,0.07,,2013-01-18 12:43:00,
2013-01-18 07:53:00,26.0,22.0,30.38,West,269,0.0,0.0,84,0.00,,,0.07,,2013-01-18 12:53:00,
2013-01-18 08:03:00,26.0,22.0,30.39,WSW,241,0.0,0.0,84,0.00,,,0.07,,2013-01-18 13:03:00,
2013-01-18 08:12:00,26.0,22.0,30.39,WSW,241,0.0,0.0,84,0.00,,,0.07,,2013-01-18 13:12:00,
2013-01-18 08:23:00,25.0,21.0,30.40,West,273,0.0,0.0,84,0.00,,,0.07,,2013-01-18 13:23:00,
2013-01-18 08:33:00,25.0,21.0,30.41,South,174,0.0,0.0,84,0.00,,,0.07,,2013-01-18 13:33:00,
2013-01-18 08:43:00,25.0,21.0,30.41,South,174,0.0,0.0,84,0.00,,,0.07,,2013-01-18 13:43:00,
2013-01-18 08:53:00,25.0,21.0,30.42,South,174,0.0,0.0,85,0.00,,,0.07,,2013-01-18 13:53:00,
2013-01-18 09:03:00,25.0,21.0,30.42,South,174,0.0,0.0,85,0.00,,,0.07,,2013-01-18 14:03:00,
2013-01-18 09:12:00,25.0,21.0,30.42,South,174,0.0,0.0,85,0.00,,,0.07,,2013-01-18 14:12:00,
2013-01-18 09:23:00,27.0,22.0,30.44,West,263,0.0,0.0,81,0.00,,,0.07,,2013-01-18 14:23:00,
2013-01-18 09:33:00,27.0,22.0,30.45,West,270,0.0,0.0,81,0.00,,,0.07,,2013-01-18 14:33:00,
2013-01-18 09:43:00,27.0,22.0,30.45,West,270,0.0,0.0,81,0.00,,,0.07,,2013-01-18 14:43:00,
2013-01-18 09:53:00,27.0,21.0,30.46,West,281,0.0,0.0,79,0.00,,,0.07,,2013-01-18 14:53:00,
2013-01-18 10:03:00,27.0,22.0,30.47,WNW,290,0.0,0.0,81,0.00,,,0.07,,2013-01-18 15:03:00,
2013-01-18 10:13:00,27.0,22.0,30.47,WNW,290,0.0,0.0,81,0.00,,,0.07,,2013-01-18 15:13:00,
2013-01-18 10:23:00,28.0,22.0,30.48,West,267,0.0,0.0,79,0.00,,,0.07,,2013-01-18 15:23:00,
2013-01-18 10:34:00,29.0,23.0,30.49,WNW,297,0.0,0.0,79,0.00,,,0.06,,2013-01-18 15:34:00,
2013-01-18 10:43:00,29.0,23.0,30.49,WNW,297,0.0,0.0,79,0.00,,,0.06,,2013-01-18 15:43:00,
2013-01-18 10:54:00,30.0,23.0,30.50,West,279,0.0,0.0,75,0.00,,,0.06,,2013-01-18 15:54:00,
2013-01-18 11:03:00,30.0,22.0,30.50,West,266,0.0,0.0,72,0.00,,,0.06,,2013-01-18 16:03:00,
2013-01-18 11:13:00,30.0,22.0,30.50,West,266,0.0,0.0,72,0.00,,,0.06,,2013-01-18 16:13:00,
2013-01-18 11:23:00,31.0,23.0,30.51,West,268,0.0,0.0,72,0.00,,,0.06,,2013-01-18 16:23:00,
2013-01-18 11:33:00,32.0,24.0,30.51,West,278,2.0,7.0,72,0.00,,,0.06,,2013-01-18 16:33:00,
2013-01-18 11:43:00,32.0,24.0,30.51,West,278,2.0,7.0,72,0.00,,,0.06,,2013-01-18 16:43:00,
2013-01-18 11:53:00,32.0,23.0,30.51,WNW,288,3.0,7.0,69,0.00,,,0.06,,2013-01-18 16:53:00,
2013-01-18 12:03:00,32.0,23.0,30.51,SW,235,3.0,7.0,70,0.01,,,0.07,,2013-01-18 17:03:00,
2013-01-18 12:13:00,32.0,23.0,30.51,SW,235,3.0,7.0,70,0.01,,,0.07,,2013-01-18 17:13:00,
2013-01-18 12:23:00,32.0,24.0,30.51,WSW,253,4.0,10.0,71,0.01,,,0.07,,2013-01-18 17:23:00,
2013-01-18 12:33:00,32.0,25.0,30.51,West,279,3.0,8.0,74,0.02,,,0.08,,2013-01-18 17:33:00,
2013-01-18 12:43:00,32.0,25.0,30.51,West,279,3.0,8.0,74,0.02,,,0.08,,2013-01-18 17:43:00,
2013-01-18 12:53:00,32.0,25.0,30.51,West,279,3.0,8.0,74,0.02,,,0.08,,2013-01-18 17:53:00,
2013-01-18 13:03:00,32.0,22.0,30.50,NW,311,3.0,8.0,67,0.15,,,0.22,,2013-01-18 18:03:00,
2013-01-18 13:13:00,32.0,22.0,30.50,NW,311,3.0,8.0,67,0.15,,,0.22,,2013-01-18 18:13:00,
2013-01-18 13:24:00,33.0,22.0,30.51,West,275,1.0,5.0,64,0.23,,,0.28,,2013-01-18 18:24:00,
2013-01-18 13:33:00,34.0,24.0,30.51,WNW,288,3.0,6.0,66,0.28,,,0.36,,2013-01-18 18:33:00,
2013-01-18 13:43:00,34.0,24.0,30.51,WNW,288,3.0,6.0,66,0.28,,,0.36,,2013-01-18 18:43:00,
2013-01-18 13:53:00,34.0,24.0,30.50,WSW,257,3.0,9.0,67,0.30,,,0.44,,2013-01-18 18:53:00,
2013-01-18 14:03:00,34.0,25.0,30.50,NW,310,1.0,8.0,70,0.31,,,0.53,,2013-01-18 19:03:00,
2013-01-18 14:13:00,34.0,25.0,30.50,NW,310,1.0,8.0,70,0.31,,,0.53,,2013-01-18 19:13:00,
2013-01-18 14:23:00,34.0,23.0,30.50,West,268,3.0,7.0,65,0.31,,,0.60,,2013-01-18 19:23:00,
2013-01-18 14:33:00,34.0,23.0,30.51,West,274,3.0,8.0,63,0.31,,,0.67,,2013-01-18 19:33:00,
2013-01-18 14:43:00,34.0,23.0,30.51,West,274,3.0,8.0,63,0.31,,,0.67,,2013-01-18 19:43:00,
2013-01-18 14:53:00,34.0,22.0,30.51,WNW,292,3.0,6.0,61,0.30,,,0.74,,2013-01-18 19:53:00,
2013-01-18 15:03:00,35.0,24.0,30.51,WNW,292,4.0,9.0,63,0.27,,,0.80,,2013-01-18 20:03:00,
2013-01-18 15:13:00,35.0,24.0,30.51,WNW,292,4.0,9.0,63,0.27,,,0.80,,2013-01-18 20:13:00,
2013-01-18 15:23:00,34.0,23.0,30.51,WNW,282,4.0,9.0,65,0.24,,,0.84,,2013-01-18 20:23:00,
2013-01-18 15:33:00,35.0,24.0,30.51,WNW,294,4.0,8.0,65,0.22,,,0.89,,2013-01-18 20:33:00,
2013-01-18 15:43:00,35.0,24.0,30.51,WNW,294,4.0,8.0,65,0.22,,,0.89,,2013-01-18 20:43:00,
2013-01-18 15:53:00,34.0,23.0,30.51,West,270,5.0,10.0,65,0.20,,,0.93,,2013-01-18 20:53:00,
2013-01-18 16:03:00,35.0,25.0,30.51,West,265,4.0,6.0,66,0.17,,,0.96,,2013-01-18 21:03:00,
2013-01-18 16:13:00,35.0,25.0,30.51,West,265,4.0,6.0,66,0.17,,,0.96,,2013-01-18 21:13:00,
2013-01-18 16:23:00,35.0,25.0,30.50,NNW,330,1.0,6.0,66,0.15,,,0.99,,2013-01-18 21:23:00,
2013-01-18 16:33:00,35.0,24.0,30.51,West,271,3.0,6.0,64,0.12,,,1.01,,2013-01-18 21:33:00,
2013-01-18 16:43:00,35.0,24.0,30.51,West,271,3.0,6.0,64,0.12,,,1.01,,2013-01-18 21:43:00,
2013-01-18 16:53:00,35.0,25.0,30.51,WNW,302,1.0,6.0,66,0.10,,,1.03,,2013-01-18 21:53:00,
2013-01-18 17:03:00,34.0,24.0,30.51,West,275,4.0,7.0,66,0.08,,,1.04,,2013-01-18 22:03:00,
2013-01-18 17:12:00,34.0,24.0,30.51,West,275,4.0,7.0,66,0.08,,,1.04,,2013-01-18 22:12:00,
2013-01-18 17:23:00,34.0,24.0,30.52,WNW,288,3.0,7.0,67,0.06,,,1.05,,2013-01-18 22:23:00,
2013-01-18 17:33:00,33.0,24.0,30.52,WNW,286,3.0,6.0,69,0.05,,,1.06,,2013-01-18 22:33:00,
2013-01-18 17:43:00,33.0,24.0,30.52,WNW,286,3.0,6.0,69,0.05,,,1.06,,2013-01-18 22:43:00,
2013-01-18 17:53:00,32.0,23.0,30.53,West,271,1.0,6.0,70,0.03,,,1.06,,2013-01-18 22:53:00,
2013-01-18 18:03:00,32.0,24.0,30.53,West,273,0.0,2.0,73,0.02,,,1.06,,2013-01-18 23:03:00,
2013-01-18 18:12:00,32.0,24.0,30.53,West,273,0.0,2.0,73,0.02,,,1.06,,2013-01-18 23:12:00,
2013-01-18 18:23:00,31.0,25.0,30.53,West,273,0.0,0.0,77,0.01,,,1.05,,2013-01-18 23:23:00,
2013-01-18 18:33:00,30.0,25.0,30.53,West,273,0.0,0.0,81,0.00,,,1.05,,2013-01-18 23:33:00,
2013-01-18 18:43:00,30.0,25.0,30.53,West,273,0.0,0.0,81,0.00,,,1.05,,2013-01-18 23:43:00,
2013-01-18 18:53:00,30.0,26.0,30.53,West,273,0.0,0.0,84,0.01,,,1.06,,2013-01-18 23:53:00,
2013-01-18 19:02:00,30.0,26.0,30.53,West,273,0.0,0.0,84,0.01,,,1.06,,2013-01-19 00:02:00,
2013-01-18 19:12:00,30.0,26.0,30.53,West,273,0.0,0.0,84,0.01,,,1.06,,2013-01-19 00:12:00,
2013-01-18 19:23:00,28.0,25.0,30.54,West,273,0.0,0.0,87,0.01,,,1.06,,2013-01-19 00:23:00,
2013-01-18 19:33:00,28.0,25.0,30.54,West,273,0.0,0.0,89,0.01,,,1.06,,2013-01-19 00:33:00,
2013-01-18 19:43:00,28.0,25.0,30.54,West,273,0.0,0.0,89,0.01,,,1.06,,2013-01-19 00:43:00,
2013-01-18 19:53:00,28.0,25.0,30.54,West,273,0.0,0.0,90,0.00,,,1.06,,2013-01-19 00:53:00,
2013-01-18 20:02:00,27.0,24.0,30.54,West,273,0.0,0.0,90,0.00,,,1.06,,2013-01-19 01:02:00,
2013-01-18 20:12:00,27.0,24.0,30.54,West,273,0.0,0.0,90,0.00,,,1.06,,2013-01-19 01:12:00,
2013-01-18 20:23:00,27.0,25.0,30.54,West,273,0.0,0.0,91,0.00,,,1.06,,2013-01-19 01:23:00,
2013-01-18 20:33:00,27.0,25.0,30.54,West,273,0.0,0.0,91,0.00,,,1.06,,2013-01-19 01:33:00,
2013-01-18 20:43:00,27.0,25.0,30.54,West,273,0.0,0.0,91,0.00,,,1.06,,2013-01-19 01:43:00,
2013-01-18 20:53:00,26.0,24.0,30.54,West,273,0.0,0.0,92,0.00,,,1.06,,2013-01-19 01:53:00,
2013-01-18 21:03:00,26.0,24.0,30.54,West,273,0.0,0.0,93,0.00,,,1.06,,2013-01-19 02:03:00,
2013-01-18 21:12:00,26.0,24.0,30.54,West,273,0.0,0.0,93,0.00,,,1.06,,2013-01-19 02:12:00,
2013-01-18 21:23:00,26.0,24.0,30.54,West,273,0.0,0.0,93,0.00,,,1.05,,2013-01-19 02:23:00,
2013-01-18 21:33:00,25.0,23.0,30.53,West,273,0.0,0.0,93,0.00,,,1.05,,2013-01-19 02:33:00,
2013-01-18 21:43:00,25.0,23.0,30.53,West,273,0.0,0.0,93,0.00,,,1.05,,2013-01-19 02:43:00,
2013-01-18 21:53:00,25.0,23.0,30.53,West,273,0.0,0.0,93,0.00,,,1.05,,2013-01-19 02:53:00,
2013-01-18 22:03:00,25.0,23.0,30.53,West,273,0.0,0.0,93,0.00,,,1.05,,2013-01-19 03:03:00,
2013-01-18 22:12:00,25.0,23.0,30.53,West,273,0.0,0.0,93,0.00,,,1.05,,2013-01-19 03:12:00,
2013-01-18 22:23:00,25.0,24.0,30.53,West,273,0.0,0.0,94,0.00,,,1.05,,2013-01-19 03:23:00,
2013-01-18 22:33:00,24.0,23.0,30.53,West,273,0.0,0.0,94,0.00,,,1.05,,2013-01-19 03:33:00,
2013-01-18 22:43:00,24.0,23.0,30.53,West,273,0.0,0.0,94,0.00,,,1.05,,2013-01-19 03:43:00,
2013-01-18 22:53:00,24.0,23.0,30.52,West,273,0.0,0.0,94,0.00,,,1.05,,2013-01-19 03:53:00,
2013-01-18 23:02:00,24.0,23.0,30.52,West,273,0.0,0.0,94,0.00,,,1.05,,2013-01-19 04:02:00,
2013-01-18 23:12:00,24.0,23.0,30.52,West,273,0.0,0.0,94,0.00,,,1.05,,2013-01-19 04:12:00,
2013-01-18 23:22:00,24.0,23.0,30.52,West,273,0.0,0.0,94,0.00,,,1.04,,2013-01-19 04:22:00,
2013-01-18 23:33:00,24.0,23.0,30.51,West,273,0.0,0.0,94,0.00,,,1.04,,2013-01-19 04:33:00,
2013-01-18 23:42:00,24.0,23.0,30.51,West,273,0.0,0.0,94,0.00,,,1.04,,2013-01-19 04:42:00,
2013-01-18 23:53:00,24.0,23.0,30.50,West,273,0.0,0.0,94,0.00,,,1.04,,2013-01-19 04:53:00,